This is the latest recevied weather packets stored in our database for station/object GW1479. If no packets are shown the sender has not sent any weather packets the latest 10 day(s).
| Time | Temp. | Humidity | Pressure | Rain* | Wind** | Luminosity | Snow |
|---|---|---|---|---|---|---|---|
| 1777452889 | 15° C | 99% | 1010.8 hPa | 0 mm | - | - | - |
| 1777452153 | 15° C | 99% | 1010.8 hPa | 0 mm | - | - | - |
| 1777448568 | 15.56° C | 99% | 1010.8 hPa | 0 mm | - | - | - |
| 1777448179 | 15.56° C | 99% | 1011.1 hPa | 0 mm | - | - | - |
| 1777445669 | 15.56° C | 99% | 1011.1 hPa | 0 mm | - | - | - |
| 1777445330 | 15.56° C | 99% | 1011.1 hPa | 0 mm | - | - | - |
| 1777443879 | 15.56° C | 99% | 1011.5 hPa | 0 mm | - | - | - |
| 1777442072 | 16.11° C | 99% | 1012.1 hPa | 0 mm | - | - | - |
| 1777441332 | 16.11° C | 99% | 1012.8 hPa | 0 mm | - | - | - |
| 1777438126 | 16.11° C | 99% | 1012.8 hPa | 0 mm | - | - | - |
| 1777436667 | 16.67° C | 99% | 1012.8 hPa | 0 mm | - | - | - |
| 1777433447 | 16.67° C | 99% | 1013.2 hPa | 10.41 mm | - | - | - |
| 1777431256 | 16.11° C | 99% | 1013.2 hPa | 10.41 mm | - | - | - |
| 1777430213 | 16.67° C | 99% | 1013.2 hPa | 10.41 mm | - | - | - |
| 1777428392 | 16.67° C | 99% | 1013.2 hPa | 10.41 mm | - | - | - |
| 1777421909 | 19.44° C | 94% | 1012.1 hPa | 10.41 mm | - | - | - |
| 1777420098 | 22.22° C | 89% | 1012.1 hPa | 10.41 mm | - | - | - |
| 1777418667 | 21.11° C | 94% | 1012.5 hPa | 10.41 mm | - | - | - |
| 1777417608 | 22.78° C | 89% | 1012.5 hPa | 10.41 mm | - | - | - |
| 1777417237 | 22.78° C | 90% | 1012.5 hPa | 10.41 mm | - | - | - |
| 1777406074 | 18.33° C | 99% | 1014.5 hPa | 10.41 mm | - | - | - |
| 1777400331 | 19.44° C | 94% | 1014.5 hPa | 10.16 mm | - | - | - |
| 1777399601 | 18.89° C | 94% | 1014.5 hPa | 10.16 mm | - | - | - |
| 1777398136 | 20° C | 88% | 1014.5 hPa | 10.16 mm | - | - | - |
| 1777395648 | 20° C | 86% | 1014.2 hPa | 10.16 mm | - | - | - |
* Rain since midnight (hover to see other rain measurements)
** Current wind speed in m/s (hover to see current wind gust speed)